CheckWX is a tool to help pilots better visualize weather data.  It is not intended as a substitute for an official pre-flight weather briefing.

04:17:56 UTC

KFME METAR
Tipton Airport
Fort Meade(Odenton), Maryland, USA
Current

36 mins ago

KFME 270342Z AUTO 00000KT 10SM CLR 20/19 A3011 RMK AO1
Observed
Jun-27 @ 03:42 UTC
Visibility
10 SM
Flight Rules
VFR
Cloud Levels
  • Clear skies
Temperature
20°C / 68°F
Dewpoint
19°C / 66°F
Humidity
94%
Altimeter
30.11" Hg
Pressure
1019.62 hPa
Previous

57 mins ago

KFME 270321Z AUTO 00000KT 10SM CLR 20/19 A3011 RMK AO1
Observed
Jun-27 @ 03:21 UTC
Visibility
10 SM
Flight Rules
VFR
Cloud Levels
  • Clear skies
Temperature
20°C / 68°F
Dewpoint
19°C / 66°F
Humidity
94%
Altimeter
30.11" Hg
Pressure
1019.62 hPa
Previous

1 hour ago

KFME 270303Z AUTO 00000KT 10SM CLR 20/20 A3011 RMK AO1
Observed
Jun-27 @ 03:03 UTC
Visibility
10 SM
Flight Rules
VFR
Cloud Levels
  • Clear skies
Temperature
20°C / 68°F
Dewpoint
20°C / 68°F
Humidity
100%
Altimeter
30.11" Hg
Pressure
1019.62 hPa